Time;durP1;ratioP1;P1;durP2;ratioP2;P2;SDS_P1;SDS_P2;PMS_P1;PMS_P2;Temp;Humidity;BMP_temperature;BMP_pressure;BME280_temperature;BME280_humidity;BME280_pressure;Samples;Min_cycle;Max_cycle;Signal;HPM_P1;HPM_P2
2022/06/20 00:01:37;;;;;;;8.40;4.17;;;;;;;14.22;89.50;101336.00;5032677;28;20679;-73
2022/06/20 00:04:04;;;;;;;11.03;3.50;;;;;;;14.23;88.96;101336.00;5031546;28;20194;-73
2022/06/20 00:06:30;;;;;;;8.40;3.27;;;;;;;14.21;88.33;101323.94;5032160;28;20189;-73
2022/06/20 00:08:55;;;;;;;7.57;3.00;;;;;;;14.22;87.94;101318.81;5031985;28;20186;-73
2022/06/20 00:11:35;;;;;;;7.57;2.90;;;;;;;14.26;87.66;101322.28;5014126;28;20210;-74
2022/06/20 00:14:00;;;;;;;6.67;2.80;;;;;;;14.24;86.96;101342.91;5031784;28;20268;-74
2022/06/20 00:16:26;;;;;;;10.73;3.47;;;;;;;14.26;86.15;101343.78;5031745;28;20249;-73
2022/06/20 00:18:52;;;;;;;7.07;3.23;;;;;;;14.23;86.78;101315.41;5031851;28;20668;-73
2022/06/20 00:21:20;;;;;;;8.27;3.17;;;;;;;14.23;86.55;101307.66;5032159;28;20202;-73
2022/06/20 00:23:46;;;;;;;8.83;3.17;;;;;;;14.22;86.93;101303.38;5031936;28;20546;-73
2022/06/20 00:26:13;;;;;;;8.17;2.87;;;;;;;14.20;86.15;101332.50;5031641;28;20297;-73
2022/06/20 00:28:39;;;;;;;7.97;3.17;;;;;;;14.22;86.20;101367.78;5031986;28;20187;-73
2022/06/20 00:31:05;;;;;;;8.67;2.60;;;;;;;14.22;85.99;101397.84;5031079;28;20244;-73
2022/06/20 00:33:31;;;;;;;6.30;2.50;;;;;;;14.27;85.87;101427.09;5013893;28;20199;-73
2022/06/20 00:35:58;;;;;;;7.60;2.53;;;;;;;14.24;86.40;101433.06;5030611;28;20191;-73
2022/06/20 00:38:23;;;;;;;8.40;2.83;;;;;;;14.23;86.48;101425.31;5014240;28;20193;-73
2022/06/20 00:40:52;;;;;;;11.97;3.27;;;;;;;14.26;86.86;101408.19;5030474;28;20199;-73
2022/06/20 00:43:23;;;;;;;9.13;2.83;;;;;;;14.19;86.35;101424.38;5031540;28;20191;-74
2022/06/20 00:45:53;;;;;;;7.30;2.67;;;;;;;14.18;86.25;101398.59;5013569;28;20193;-73
2022/06/20 00:48:25;;;;;;;6.60;3.10;;;;;;;14.18;86.40;101378.00;5031281;28;20565;-74
2022/06/20 00:50:57;;;;;;;9.37;3.07;;;;;;;14.18;86.07;101358.22;5031732;28;20619;-74
2022/06/20 00:53:32;;;;;;;6.23;2.43;;;;;;;14.19;86.70;101338.50;5011643;28;20551;-74
2022/06/20 00:56:03;;;;;;;9.17;2.97;;;;;;;14.22;86.86;101329.13;5030581;28;20194;-74
2022/06/20 00:58:35;;;;;;;6.90;2.87;;;;;;;14.21;86.79;101301.66;5040572;28;20181;-73
2022/06/20 01:01:00;;;;;;;7.43;3.07;;;;;;;14.21;87.07;101281.03;5013658;28;20202;-74
2022/06/20 01:03:34;;;;;;;6.17;3.00;;;;;;;14.17;88.11;101279.22;5031009;28;20192;-74
2022/06/20 01:06:08;;;;;;;6.27;2.60;;;;;;;14.10;88.22;101285.19;5031216;28;20209;-74
2022/06/20 01:08:40;;;;;;;7.90;2.90;;;;;;;14.09;88.24;101283.41;5031304;28;20265;-74
2022/06/20 01:11:16;;;;;;;7.50;2.90;;;;;;;14.09;88.36;101277.44;5030856;28;20206;-74
2022/06/20 01:13:43;;;;;;;6.70;2.70;;;;;;;14.06;88.33;101283.41;5031360;28;20182;-74
2022/06/20 01:16:14;;;;;;;4.50;2.40;;;;;;;14.09;87.46;101293.72;5030844;28;20202;-74
2022/06/20 01:18:46;;;;;;;7.67;2.90;;;;;;;14.12;87.52;101301.50;5031590;28;20265;-74
2022/06/20 01:21:20;;;;;;;6.37;3.10;;;;;;;14.13;86.91;101292.91;5030519;28;20213;-74
2022/06/20 01:24:07;;;;;;;10.77;3.33;;;;;;;14.17;87.22;101283.50;5031007;28;20216;-73
2022/06/20 01:27:08;;;;;;;5.17;2.60;;;;;;;14.16;87.04;101289.50;5030667;28;20173;-74
2022/06/20 01:29:33;;;;;;;9.63;2.63;;;;;;;14.15;86.71;101295.50;5030803;28;20225;-74
2022/06/20 01:32:00;;;;;;;7.03;2.97;;;;;;;14.16;86.36;101292.97;5030542;28;20569;-74
2022/06/20 01:34:25;;;;;;;7.57;3.17;;;;;;;14.16;86.51;101300.69;5030714;28;20183;-74
2022/06/20 01:39:40;;;;;;;7.83;3.00;;;;;;;14.15;86.25;101295.50;5030682;28;20182;-74
2022/06/20 01:42:19;;;;;;;7.07;2.90;;;;;;;14.17;86.09;101292.13;5030564;28;20212;-74
2022/06/20 01:45:00;;;;;;;7.87;3.00;;;;;;;14.19;86.01;101307.59;5030364;28;20190;-74
2022/06/20 01:47:26;;;;;;;6.70;3.10;;;;;;;14.22;86.65;101315.41;5030494;28;20860;-74
2022/06/20 01:49:58;;;;;;;6.40;3.20;;;;;;;14.21;86.63;101318.78;5030035;28;20189;-73
2022/06/20 01:52:35;;;;;;;7.67;3.13;;;;;;;14.18;86.30;101332.47;5030174;28;20206;-73
2022/06/20 01:55:07;;;;;;;7.23;2.80;;;;;;;14.13;86.75;101335.84;5029900;28;20269;-74
2022/06/20 01:57:35;;;;;;;7.50;3.20;;;;;;;14.17;86.72;101309.25;5030344;28;20245;-73
2022/06/20 02:00:04;;;;;;;7.80;2.93;;;;;;;14.14;87.11;101312.66;5029785;28;20225;-73
2022/06/20 02:02:36;;;;;;;9.40;3.20;;;;;;;14.09;87.07;101321.22;5030571;28;20575;-74
2022/06/20 02:05:06;;;;;;;12.10;3.50;;;;;;;14.04;87.17;101304.84;5029717;28;20194;-74
2022/06/20 02:07:32;;;;;;;9.40;3.10;;;;;;;14.02;87.11;101297.09;5012399;28;20190;-74
2022/06/20 02:10:00;;;;;;;8.17;3.27;;;;;;;14.01;87.36;101299.63;5030010;28;20559;-74
2022/06/20 02:12:29;;;;;;;9.97;3.40;;;;;;;13.97;86.99;101300.44;5011803;28;20214;-74
2022/06/20 02:14:58;;;;;;;8.43;3.00;;;;;;;13.94;87.19;101303.84;5029903;28;20186;-74
2022/06/20 02:17:30;;;;;;;9.33;3.23;;;;;;;13.93;88.18;101291.81;5029529;28;20644;-74
2022/06/20 02:19:58;;;;;;;10.10;2.97;;;;;;;13.91;88.13;101296.06;5030097;28;20182;-74
2022/06/20 02:22:26;;;;;;;10.47;3.37;;;;;;;13.93;87.33;101296.09;5029492;28;20301;-74
2022/06/20 02:24:56;;;;;;;7.53;3.30;;;;;;;13.91;87.44;101305.50;5029691;28;20194;-74
2022/06/20 02:27:30;;;;;;;9.13;3.60;;;;;;;13.88;88.21;101302.88;5029435;28;20174;-74
2022/06/20 02:29:59;;;;;;;9.57;3.63;;;;;;;13.89;87.45;101302.03;5029859;28;20209;-74
2022/06/20 02:32:29;;;;;;;8.27;4.13;;;;;;;13.86;87.50;101307.16;5029627;28;20209;-74
2022/06/20 02:34:54;;;;;;;8.00;3.77;;;;;;;13.86;87.46;101302.88;5029339;28;20190;-74
2022/06/20 02:37:23;;;;;;;7.47;2.90;;;;;;;13.85;87.17;101301.13;5029945;28;20310;-74
2022/06/20 02:39:53;;;;;;;8.10;3.30;;;;;;;13.83;88.16;101301.97;5029311;28;20178;-74
2022/06/20 02:42:46;;;;;;;7.63;3.30;;;;;;;13.85;88.04;101308.84;5029608;28;20214;-73
2022/06/20 02:45:12;;;;;;;11.70;3.20;;;;;;;13.84;88.15;101302.00;5028813;28;20644;-74
2022/06/20 02:47:46;;;;;;;8.37;3.20;;;;;;;13.81;87.78;101290.78;5029447;28;20548;-74
2022/06/20 02:50:13;;;;;;;7.50;2.63;;;;;;;13.78;87.63;101280.44;5028361;28;20249;-74
2022/06/20 02:52:49;;;;;;;8.53;2.87;;;;;;;13.76;87.74;101277.00;5029492;28;20289;-74
2022/06/20 02:55:17;;;;;;;6.80;3.63;;;;;;;13.72;88.14;101270.94;5028613;28;20170;-74
2022/06/20 02:57:48;;;;;;;9.57;3.53;;;;;;;13.75;87.95;101275.25;5010961;28;20706;-74
2022/06/20 03:00:18;;;;;;;8.50;3.10;;;;;;;13.75;87.69;101293.25;5029377;28;20194;-74
2022/06/20 03:02:50;;;;;;;9.13;3.17;;;;;;;13.73;87.59;101285.56;5010886;28;20190;-74
2022/06/20 03:05:17;;;;;;;10.83;3.27;;;;;;;13.73;88.39;101272.69;5034118;28;20194;-73
2022/06/20 03:07:44;;;;;;;8.60;2.63;;;;;;;13.65;88.33;101263.97;5034256;28;20182;-73
2022/06/20 03:10:28;;;;;;;7.73;3.07;;;;;;;13.60;88.31;101283.66;5035318;28;20178;-73
2022/06/20 03:12:56;;;;;;;7.80;3.10;;;;;;;13.57;88.31;101283.59;5035274;28;20204;-74
2022/06/20 03:15:22;;;;;;;6.83;2.80;;;;;;;13.56;88.52;101287.00;5035043;28;20285;-75
2022/06/20 03:17:51;;;;;;;9.03;2.80;;;;;;;13.53;88.53;101292.09;5035197;28;20695;-73
2022/06/20 03:20:20;;;;;;;11.70;3.40;;;;;;;13.54;89.31;101296.41;5034250;28;20210;-73
2022/06/20 03:22:55;;;;;;;7.23;2.87;;;;;;;13.56;88.94;101299.00;5035185;28;20217;-74
2022/06/20 03:25:21;;;;;;;10.10;2.70;;;;;;;13.56;88.61;101299.00;5034982;28;20538;-76
2022/06/20 03:27:51;;;;;;;7.97;3.00;;;;;;;13.56;88.45;101302.44;5035300;28;20735;-73
2022/06/20 03:30:47;;;;;;;9.10;3.03;;;;;;;13.54;88.55;101304.13;5034987;28;20182;-73
2022/06/20 03:33:16;;;;;;;8.73;3.00;;;;;;;13.53;88.21;101304.13;5019096;28;20303;-73
2022/06/20 03:35:55;;;;;;;13.43;3.70;;;;;;;13.50;88.36;101306.63;5035166;28;20197;-74
2022/06/20 03:38:22;;;;;;;6.87;2.50;;;;;;;13.51;88.27;101313.50;5018136;28;20271;-73
2022/06/20 03:40:48;;;;;;;9.67;2.90;;;;;;;13.54;88.41;101318.72;5032922;28;20220;-74
2022/06/20 03:43:19;;;;;;;10.23;2.97;;;;;;;13.59;88.49;101314.50;5035363;28;20209;-73
2022/06/20 03:45:54;;;;;;;8.07;2.80;;;;;;;13.65;88.79;101312.00;5035360;28;20198;-74
2022/06/20 03:48:22;;;;;;;11.50;2.90;;;;;;;13.74;87.96;101319.84;5018236;28;20205;-74
2022/06/20 03:50:54;;;;;;;10.57;2.83;;;;;;;13.78;88.33;101311.34;5035229;28;20352;-74
2022/06/20 03:53:26;;;;;;;9.20;2.77;;;;;;;13.85;87.61;101314.00;5035709;28;20183;-74
2022/06/20 03:56:17;;;;;;;9.07;3.10;;;;;;;13.89;87.76;101308.06;5035307;28;20194;-74
2022/06/20 03:58:53;;;;;;;9.13;2.43;;;;;;;13.87;87.95;101320.06;5035617;28;20201;-73
2022/06/20 04:01:26;;;;;;;7.23;2.73;;;;;;;13.90;87.30;101316.66;5035335;28;20833;-73
2022/06/20 04:04:00;;;;;;;8.23;2.70;;;;;;;13.91;87.57;101310.66;5034980;28;20174;-73
2022/06/20 04:06:34;;;;;;;8.67;3.00;;;;;;;13.92;87.30;101310.69;5017431;28;20300;-73
2022/06/20 04:12:14;;;;;;;6.87;2.60;;;;;;;13.89;87.58;101317.47;5035261;28;20210;-73
2022/06/20 04:14:49;;;;;;;7.47;3.20;;;;;;;13.90;87.50;101302.06;5034270;28;20194;-73
2022/06/20 04:20:28;;;;;;;5.90;2.37;;;;;;;14.00;86.30;101313.34;5031696;28;20535;-74
2022/06/20 04:22:54;;;;;;;8.03;2.60;;;;;;;14.01;85.86;101317.66;5032319;28;20178;-74
2022/06/20 04:25:29;;;;;;;9.20;2.50;;;;;;;14.02;85.88;101322.84;5031676;28;20564;-73
2022/06/20 04:28:02;;;;;;;6.63;2.43;;;;;;;14.02;86.09;101324.53;5032067;28;20190;-74
2022/06/20 04:30:40;;;;;;;9.70;2.70;;;;;;;14.02;86.15;101330.56;5031508;28;20232;-73
2022/06/20 04:33:33;;;;;;;12.30;3.20;;;;;;;14.01;86.17;101327.97;5031896;28;20225;-73
2022/06/20 04:36:11;;;;;;;9.03;2.63;;;;;;;14.03;85.97;101331.41;5006085;28;20212;-74
2022/06/20 04:38:50;;;;;;;10.10;3.13;;;;;;;14.08;85.99;101319.47;5012160;28;20202;-74
2022/06/20 04:41:44;;;;;;;8.03;2.77;;;;;;;14.06;85.79;101323.72;5011516;28;20203;-73
2022/06/20 04:44:21;;;;;;;9.33;2.33;;;;;;;14.08;86.21;101325.47;5011905;28;20187;-74
2022/06/20 04:46:57;;;;;;;8.23;2.50;;;;;;;14.12;85.86;101316.94;5011714;28;20738;-73
2022/06/20 04:49:22;;;;;;;8.30;3.03;;;;;;;14.19;84.88;101323.03;5012072;28;20561;-73
2022/06/20 04:51:49;;;;;;;9.93;2.83;;;;;;;14.19;85.38;101316.19;5028900;28;20206;-74
2022/06/20 04:54:19;;;;;;;8.77;2.70;;;;;;;14.15;83.96;101316.13;5031087;28;20194;-73
2022/06/20 04:56:47;;;;;;;10.00;2.70;;;;;;;14.19;83.35;101318.78;5031559;28;20222;-73
2022/06/20 04:59:30;;;;;;;7.17;2.70;;;;;;;14.29;84.06;101306.88;5030865;28;20209;-74
2022/06/20 05:01:59;;;;;;;6.03;2.30;;;;;;;14.36;83.96;101304.38;5031328;28;20220;-73
2022/06/20 05:04:41;;;;;;;9.50;3.03;;;;;;;14.42;83.25;101294.19;5012792;28;20194;-73
2022/06/20 05:07:14;;;;;;;8.50;2.43;;;;;;;14.55;83.01;101298.59;5030940;28;20186;-74
2022/06/20 05:09:53;;;;;;;9.17;2.30;;;;;;;14.66;81.92;101301.28;5030650;28;20287;-73
2022/06/20 05:12:22;;;;;;;7.60;2.47;;;;;;;14.96;81.44;101297.28;5031207;28;20750;-73
2022/06/20 05:14:59;;;;;;;7.20;2.27;;;;;;;15.04;81.01;101284.44;5030398;28;20186;-73
2022/06/20 05:17:29;;;;;;;9.63;2.40;;;;;;;15.13;80.65;101277.66;5030860;28;20217;-73
2022/06/20 05:20:00;;;;;;;5.67;2.23;;;;;;;15.25;80.00;101274.31;5030195;28;20194;-74
2022/06/20 05:22:31;;;;;;;7.47;2.20;;;;;;;15.44;79.47;101269.31;5031059;28;20210;-74
2022/06/20 05:25:00;;;;;;;9.97;2.57;;;;;;;15.34;79.47;101259.78;5030583;28;20566;-74
2022/06/20 05:27:30;;;;;;;7.10;2.40;;;;;;;15.23;79.20;101257.94;5026271;28;20652;-74
2022/06/20 05:30:03;;;;;;;8.83;2.30;;;;;;;15.42;78.57;101252.09;5028932;28;20199;-74
2022/06/20 05:32:57;;;;;;;10.37;2.03;;;;;;;15.62;77.65;101243.63;5028906;28;20214;-73
2022/06/20 05:35:30;;;;;;;7.67;2.07;;;;;;;15.53;77.65;101240.09;5008583;28;20211;-74
2022/06/20 05:38:05;;;;;;;7.53;2.57;;;;;;;15.53;77.72;101237.53;5030012;28;20222;-74
2022/06/20 05:40:50;;;;;;;8.37;2.50;;;;;;;15.54;77.58;101229.81;5030210;28;20189;-74
2022/06/20 05:43:22;;;;;;;9.43;2.63;;;;;;;15.76;76.80;101223.91;5030301;28;20204;-74
2022/06/20 05:45:53;;;;;;;7.37;2.57;;;;;;;15.81;75.68;101203.25;5030274;28;20209;-74
2022/06/20 05:48:25;;;;;;;10.07;2.37;;;;;;;16.14;75.16;101208.50;5012087;28;20195;-74
2022/06/20 05:50:59;;;;;;;10.83;2.67;;;;;;;16.40;74.01;101205.16;5030100;28;20225;-74
2022/06/20 05:53:33;;;;;;;7.03;1.77;;;;;;;16.45;73.88;101200.00;5029713;28;20208;-74
2022/06/20 05:56:02;;;;;;;7.57;2.80;;;;;;;16.32;74.54;101196.50;5029647;28;20243;-73
2022/06/20 05:58:31;;;;;;;11.63;2.63;;;;;;;16.03;74.97;101211.06;5030496;28;20550;-73
2022/06/20 06:01:03;;;;;;;10.93;2.70;;;;;;;16.14;73.48;101205.94;5029469;28;20220;-73
2022/06/20 06:03:53;;;;;;;10.40;2.10;;;;;;;16.54;73.62;101206.03;5030238;28;20190;-74
2022/06/20 06:06:23;;;;;;;11.27;2.53;;;;;;;16.75;73.58;101205.19;5029350;28;20190;-74
2022/06/20 06:08:56;;;;;;;8.87;2.90;;;;;;;16.74;71.97;101204.34;5030041;28;20186;-74
2022/06/20 06:11:39;;;;;;;9.07;2.40;;;;;;;16.83;72.47;101203.47;5029389;28;20202;-74
2022/06/20 06:14:26;;;;;;;11.00;2.70;;;;;;;16.79;72.03;101200.03;5030146;28;20193;-74
2022/06/20 06:17:08;;;;;;;7.90;2.47;;;;;;;16.86;71.31;101204.31;5029224;28;20218;-74
2022/06/20 06:19:51;;;;;;;7.53;2.10;;;;;;;17.04;70.74;101203.47;5029380;28;20182;-73
2022/06/20 06:22:27;;;;;;;10.43;2.47;;;;;;;16.95;69.62;101195.72;5017457;28;20213;-74
2022/06/20 06:24:59;;;;;;;9.77;2.73;;;;;;;16.88;69.82;101201.72;5028056;28;20186;-73
2022/06/20 06:27:32;;;;;;;8.27;2.07;;;;;;;17.43;69.53;101195.63;5029246;28;20266;-75
2022/06/20 06:30:03;;;;;;;9.73;2.70;;;;;;;17.28;68.55;101198.25;5029710;28;20192;-73
2022/06/20 06:32:33;;;;;;;9.50;2.40;;;;;;;17.32;67.29;101198.22;5028774;28;20218;-73
2022/06/20 06:35:16;;;;;;;8.77;2.33;;;;;;;17.38;65.04;101206.00;5009884;28;20761;-74
2022/06/20 06:38:03;;;;;;;7.40;2.20;;;;;;;17.40;65.02;101211.22;5028345;28;20708;-73
2022/06/20 06:40:32;;;;;;;7.50;1.90;;;;;;;17.43;65.08;101217.22;5030128;28;20190;-73
2022/06/20 06:42:59;;;;;;;10.00;2.20;;;;;;;17.69;65.26;101217.16;5034021;28;20186;-73
2022/06/20 06:45:29;;;;;;;9.73;1.93;;;;;;;17.85;63.42;101211.91;5028504;28;20652;-73
2022/06/20 06:48:26;;;;;;;8.07;2.10;;;;;;;18.13;64.74;101208.31;5029600;28;20177;-73
2022/06/20 06:51:05;;;;;;;5.93;1.53;;;;;;;18.08;61.10;101206.59;5029852;28;20232;-73
2022/06/20 06:53:43;;;;;;;9.97;1.57;;;;;;;18.12;61.43;101192.75;5029154;28;20183;-74
2022/06/20 06:56:34;;;;;;;8.97;2.03;;;;;;;18.04;60.71;101191.94;5028213;28;20194;-74
2022/06/20 06:59:15;;;;;;;8.83;2.10;;;;;;;18.15;60.86;101201.38;5028818;28;20222;-73
2022/06/20 07:01:45;;;;;;;6.20;1.83;;;;;;;18.45;60.12;101195.16;5027171;28;20199;-74
2022/06/20 07:04:19;;;;;;;7.03;1.90;;;;;;;18.31;59.69;101207.31;5028559;28;20190;-74
2022/06/20 07:06:50;;;;;;;7.47;1.70;;;;;;;18.02;60.76;101212.69;5028731;28;20804;-73
2022/06/20 07:09:26;;;;;;;4.77;1.13;;;;;;;18.70;58.27;101220.06;5028829;28;20194;-73
2022/06/20 07:12:19;;;;;;;5.57;1.40;;;;;;;18.66;58.39;101232.19;5028916;28;20210;-73
2022/06/20 07:15:11;;;;;;;5.93;1.60;;;;;;;18.38;59.53;101227.22;4991477;28;20333;-73
2022/06/20 07:17:59;;;;;;;5.43;2.10;;;;;;;18.39;61.09;101240.19;5028646;28;20214;-74
2022/06/20 07:20:32;;;;;;;6.47;2.10;;;;;;;18.21;62.18;101240.25;5028583;28;20175;-73
2022/06/20 07:23:01;;;;;;;4.77;1.63;;;;;;;17.95;62.08;101241.22;5029142;28;20273;-73
2022/06/20 07:25:35;;;;;;;5.03;1.33;;;;;;;17.84;61.77;101246.47;5028015;28;20190;-73
2022/06/20 07:28:13;;;;;;;3.43;1.53;;;;;;;17.68;62.27;101254.28;5009667;28;20312;-74
2022/06/20 07:30:47;;;;;;;6.03;2.30;;;;;;;17.66;62.92;101248.22;5019844;28;20559;-74
2022/06/20 07:33:26;;;;;;;5.47;1.60;;;;;;;17.79;62.75;101255.09;5035382;28;20671;-73
2022/06/20 07:35:55;;;;;;;2.97;1.40;;;;;;;17.92;62.36;101259.38;5034402;28;20197;-73
2022/06/20 07:38:24;;;;;;;5.23;1.80;;;;;;;17.91;61.36;101257.66;5048275;28;20202;-73
2022/06/20 07:40:54;;;;;;;4.30;1.43;;;;;;;17.84;61.29;101264.59;5029618;28;20251;-74
2022/06/20 07:43:29;;;;;;;7.77;1.70;;;;;;;17.81;62.18;101271.50;5048582;28;20182;-74
2022/06/20 07:45:55;;;;;;;4.37;1.43;;;;;;;17.72;61.83;101282.75;5028382;28;20240;-73
2022/06/20 07:48:32;;;;;;;4.13;1.37;;;;;;;17.82;62.53;101281.88;5028370;28;20282;-74
2022/06/20 07:51:09;;;;;;;2.37;1.40;;;;;;;17.76;62.12;101278.44;5030688;28;20210;-74
2022/06/20 07:54:05;;;;;;;4.53;1.57;;;;;;;17.99;62.56;101284.41;5031940;28;20628;-73
2022/06/20 07:56:38;;;;;;;5.13;1.40;;;;;;;18.33;61.69;101278.25;5044997;28;20220;-74
2022/06/20 07:59:10;;;;;;;5.00;1.50;;;;;;;18.42;61.13;101275.59;5030663;28;20187;-74
2022/06/20 08:01:51;;;;;;;3.10;1.30;;;;;;;18.72;60.62;101283.19;5014284;28;20206;-73
2022/06/20 08:04:27;;;;;;;4.00;1.37;;;;;;;18.86;60.47;101283.94;5012886;28;20281;-73
2022/06/20 08:07:12;;;;;;;3.00;1.40;;;;;;;18.98;59.12;101274.34;5029732;28;20216;-73
2022/06/20 08:09:45;;;;;;;4.37;1.53;;;;;;;19.03;60.21;101276.91;5030957;28;20286;-73
2022/06/20 08:12:20;;;;;;;4.30;1.50;;;;;;;19.17;59.48;101260.31;5031511;28;20229;-73
2022/06/20 08:14:51;;;;;;;3.57;1.40;;;;;;;19.19;58.49;101257.72;5031041;28;20664;-73
2022/06/20 08:17:16;;;;;;;4.37;1.50;;;;;;;19.17;57.95;101262.91;5032163;28;20217;-73
2022/06/20 08:19:44;;;;;;;4.13;1.47;;;;;;;19.34;57.50;101255.88;5031510;28;20190;-73
2022/06/20 08:22:16;;;;;;;4.63;1.50;;;;;;;19.73;56.65;101249.41;5031439;28;20605;-74
2022/06/20 08:24:53;;;;;;;3.23;1.20;;;;;;;19.78;56.14;101251.09;5031317;28;20194;-73
2022/06/20 08:27:32;;;;;;;3.20;1.10;;;;;;;20.16;54.38;101245.41;5031485;28;20255;-73
2022/06/20 08:30:07;;;;;;;4.97;1.27;;;;;;;20.73;52.92;101242.00;5031601;28;20217;-74
2022/06/20 08:32:51;;;;;;;4.93;1.43;;;;;;;21.01;54.57;101235.50;5031228;28;20679;-73
2022/06/20 08:35:28;;;;;;;4.80;1.37;;;;;;;21.47;50.41;101228.59;5031086;28;20233;-73
2022/06/20 08:38:07;;;;;;;4.37;1.40;;;;;;;21.45;50.52;101235.56;5031085;28;20281;-73
2022/06/20 08:40:54;;;;;;;4.17;1.40;;;;;;;21.62;51.30;101218.72;5031488;28;20606;-73
2022/06/20 08:43:28;;;;;;;3.33;1.33;;;;;;;21.20;49.32;101222.13;5031178;28;20214;-73
2022/06/20 08:46:04;;;;;;;3.80;1.20;;;;;;;20.94;50.99;101224.31;5013184;28;20182;-73
2022/06/20 08:48:44;;;;;;;4.30;1.53;;;;;;;21.80;49.93;101221.00;5031002;28;20205;-73
2022/06/20 08:51:19;;;;;;;5.70;1.43;;;;;;;21.66;48.89;101215.13;5031318;28;20210;-73
2022/06/20 08:54:08;;;;;;;2.53;1.33;;;;;;;22.28;46.58;101219.94;5030772;28;20620;-73
2022/06/20 08:56:54;;;;;;;5.73;1.33;;;;;;;21.89;46.89;101207.75;5030651;28;20314;-73
2022/06/20 08:59:55;;;;;;;3.40;1.20;;;;;;;21.23;47.63;101213.41;5030947;28;20552;-73
2022/06/20 09:02:30;;;;;;;3.00;1.10;;;;;;;21.68;46.28;101192.53;5012510;28;20245;-73
2022/06/20 09:05:21;;;;;;;4.97;1.67;;;;;;;20.99;47.19;101206.00;5030135;28;20186;-73
2022/06/20 09:08:04;;;;;;;3.43;1.17;;;;;;;21.59;45.38;101210.94;5031170;28;20294;-74
2022/06/20 09:10:45;;;;;;;3.17;1.07;;;;;;;21.93;44.11;101203.34;5030353;28;20177;-73
2022/06/20 09:13:10;;;;;;;2.87;1.30;;;;;;;21.94;45.01;101213.75;5031426;28;20167;-73
2022/06/20 09:16:00;;;;;;;5.03;1.50;;;;;;;22.83;43.47;101203.84;5030348;28;20189;-74
2022/06/20 09:18:41;;;;;;;2.37;1.10;;;;;;;23.00;42.44;101206.03;5030698;28;20215;-74
2022/06/20 09:21:41;;;;;;;3.07;1.20;;;;;;;22.81;41.97;101204.78;5030374;28;20198;-73
2022/06/20 09:24:37;;;;;;;3.13;1.30;;;;;;;21.98;43.07;101225.81;5013203;28;20568;-73
2022/06/20 09:27:06;;;;;;;3.33;1.20;;;;;;;21.34;44.48;101234.91;5030340;28;20561;-73
2022/06/20 09:29:34;;;;;;;4.47;1.27;;;;;;;20.59;48.59;101243.97;5030447;28;20922;-73
2022/06/20 09:32:16;;;;;;;3.37;1.57;;;;;;;19.95;55.13;101259.53;5030430;28;20753;-73
2022/06/20 09:35:11;;;;;;;3.33;1.60;;;;;;;19.38;57.55;101265.38;5029752;28;20190;-73
2022/06/20 09:37:49;;;;;;;2.97;1.40;;;;;;;19.11;60.56;101260.38;5030512;28;20218;-73
2022/06/20 09:40:37;;;;;;;5.23;1.60;;;;;;;18.98;62.26;101250.97;5028384;28;20194;-73
2022/06/20 09:43:09;;;;;;;3.30;1.70;;;;;;;18.91;62.24;101256.22;5030593;28;20178;-72
2022/06/20 09:45:44;;;;;;;4.70;1.70;;;;;;;18.79;61.78;101251.16;5029351;28;20187;-73
2022/06/20 09:48:26;;;;;;;3.93;1.50;;;;;;;18.73;62.75;101248.56;5030534;28;20627;-73
2022/06/20 09:51:14;;;;;;;4.77;1.87;;;;;;;18.86;62.36;101255.41;5029348;28;20225;-73
2022/06/20 09:54:21;;;;;;;2.60;1.23;;;;;;;18.63;63.31;101249.50;5030254;28;20186;-73
2022/06/20 09:57:07;;;;;;;6.73;2.20;;;;;;;19.06;61.62;101253.50;5011377;28;20280;-73
2022/06/20 09:59:37;;;;;;;3.27;1.63;;;;;;;19.77;59.82;101243.28;5019256;28;20585;-73
2022/06/20 10:02:20;;;;;;;4.03;1.53;;;;;;;19.89;59.19;101251.81;5029525;28;20206;-73
2022/06/20 10:04:59;;;;;;;7.10;1.77;;;;;;;20.90;56.12;101238.28;5028449;28;20636;-73
2022/06/20 10:07:50;;;;;;;4.80;1.70;;;;;;;21.04;55.48;101230.22;5029710;28;20178;-73
2022/06/20 10:10:35;;;;;;;3.93;1.57;;;;;;;21.59;53.21;101228.34;5029760;28;20183;-73
2022/06/20 10:13:11;;;;;;;3.03;1.50;;;;;;;21.55;53.36;101227.53;5029211;28;20183;-73
2022/06/20 10:15:45;;;;;;;4.77;1.70;;;;;;;21.91;52.31;101229.47;5029414;28;20830;-73
2022/06/20 10:18:20;;;;;;;4.20;1.70;;;;;;;22.48;49.18;101223.88;5029330;28;20244;-74
2022/06/20 10:21:03;;;;;;;4.47;1.40;;;;;;;21.41;50.45;101233.88;5011478;28;20209;-73
2022/06/20 10:23:41;;;;;;;4.07;1.70;;;;;;;20.94;52.25;101226.94;5029352;28;20684;-73
2022/06/20 10:26:48;;;;;;;5.53;1.80;;;;;;;20.78;52.89;101230.63;5029442;28;20729;-73
2022/06/20 10:29:42;;;;;;;5.13;1.67;;;;;;;21.34;51.52;101235.78;5008216;28;20725;-73
2022/06/20 10:32:18;;;;;;;2.20;1.40;;;;;;;20.86;52.01;101227.91;5029437;28;20347;-73
2022/06/20 10:35:19;;;;;;;3.03;1.60;;;;;;;20.67;53.20;101229.94;5028600;28;20587;-72
2022/06/20 10:38:00;;;;;;;3.77;1.70;;;;;;;20.64;52.88;101240.38;5029505;28;20218;-73
2022/06/20 10:40:31;;;;;;;5.80;2.50;;;;;;;20.92;50.36;101241.69;5028514;28;20261;-73
2022/06/20 10:43:10;;;;;;;6.90;2.40;;;;;;;21.04;50.94;101243.25;5029417;28;20194;-73
2022/06/20 10:45:44;;;;;;;5.47;2.50;;;;;;;21.61;49.46;101235.22;5028234;28;20221;-73
2022/06/20 10:48:13;;;;;;;5.63;2.10;;;;;;;21.25;49.60;101230.72;5029377;28;20173;-73
2022/06/20 10:50:47;;;;;;;6.70;2.87;;;;;;;20.83;50.69;101247.03;5028339;28;20719;-73
2022/06/20 10:53:19;;;;;;;5.07;2.40;;;;;;;20.49;50.15;101243.22;5029339;28;20173;-73
2022/06/20 10:55:51;;;;;;;4.57;2.50;;;;;;;20.50;49.45;101252.75;5028619;28;20189;-73
2022/06/20 10:58:38;;;;;;;5.30;1.97;;;;;;;20.14;48.45;101253.28;5028881;28;20210;-73
2022/06/20 11:01:41;;;;;;;5.90;2.07;;;;;;;20.59;49.27;101252.59;5028741;28;20206;-73
2022/06/20 11:04:34;;;;;;;3.97;2.00;;;;;;;21.84;47.02;101242.66;5023822;28;20696;-73
2022/06/20 11:07:27;;;;;;;5.67;1.80;;;;;;;22.44;44.79;101242.19;5028722;28;20175;-74
2022/06/20 11:10:04;;;;;;;3.17;1.90;;;;;;;22.23;45.14;101240.97;5028890;28;20186;-74
2022/06/20 11:13:00;;;;;;;6.10;2.20;;;;;;;21.85;45.04;101239.16;5028969;28;20205;-73
2022/06/20 11:15:54;;;;;;;8.53;2.43;;;;;;;21.50;46.19;101244.16;5028567;28;20632;-73
2022/06/20 11:18:34;;;;;;;4.90;1.93;;;;;;;21.25;45.63;101242.88;5028597;28;20198;-73
2022/06/20 11:21:31;;;;;;;5.83;2.40;;;;;;;21.60;46.58;101235.28;5028694;28;20206;-73
2022/06/20 11:24:11;;;;;;;3.90;1.67;;;;;;;22.41;43.14;101235.34;5028501;28;20175;-73
2022/06/20 11:26:47;;;;;;;3.00;1.80;;;;;;;21.86;43.08;101238.25;5014462;28;20182;-73
2022/06/20 11:29:36;;;;;;;4.63;1.97;;;;;;;22.35;41.26;101236.31;5032429;28;20232;-73
2022/06/20 11:32:14;;;;;;;2.47;1.27;;;;;;;22.43;41.53;101230.03;5032742;28;20589;-73
2022/06/20 11:34:50;;;;;;;6.07;1.50;;;;;;;22.25;39.63;101232.22;5032837;28;20221;-73
2022/06/20 11:37:33;;;;;;;4.43;1.40;;;;;;;22.67;39.48;101233.88;5032837;28;20236;-73
2022/06/20 11:40:42;;;;;;;4.03;1.70;;;;;;;22.82;38.18;101230.00;5031262;28;20609;-73
2022/06/20 11:43:22;;;;;;;5.60;1.23;;;;;;;22.83;39.34;101229.97;5032462;28;20272;-73
2022/06/20 11:46:42;;;;;;;6.60;1.70;;;;;;;22.88;39.23;101229.88;5031961;28;20200;-73
2022/06/20 11:49:27;;;;;;;4.53;1.57;;;;;;;23.39;40.64;101232.03;4951655;29;20271;-73
2022/06/20 11:52:12;;;;;;;4.97;1.60;;;;;;;23.40;39.17;101227.69;5025868;28;20221;-73
2022/06/20 11:54:55;;;;;;;3.67;1.70;;;;;;;22.71;40.63;101239.88;5014845;28;20235;-73
2022/06/20 11:57:44;;;;;;;4.13;1.70;;;;;;;22.42;41.54;101237.91;5031905;28;20686;-73
2022/06/20 12:00:19;;;;;;;5.33;1.70;;;;;;;22.81;41.69;101241.38;5031880;28;20194;-73
2022/06/20 12:02:49;;;;;;;5.53;2.20;;;;;;;23.07;41.39;101234.59;5030772;28;20209;-73
2022/06/20 12:05:17;;;;;;;4.00;1.90;;;;;;;22.83;41.13;101234.38;5031620;28;20602;-73
2022/06/20 12:08:11;;;;;;;3.50;1.80;;;;;;;23.10;41.33;101239.75;5014931;28;20555;-73
2022/06/20 12:10:43;;;;;;;6.00;2.07;;;;;;;23.54;40.66;101228.16;5032051;28;20183;-73
2022/06/20 12:13:46;;;;;;;6.93;2.00;;;;;;;23.54;39.62;101231.66;5031998;28;20186;-73
2022/06/20 12:16:30;;;;;;;4.33;2.07;;;;;;;24.11;40.12;101210.81;5030635;28;20178;-73